Warrens, WI (54666)

1:59 PM CDT on July 31, 2014 (GMT -0500)
MesoWest WARENS WI US UPR (MUP115) Elev 977 ft | 44.09 °N, 90.45 °W | Change Station

Current weather conditions updated 1 hour ago

Clear
Clear
80 °F
Feels Like 78 °F
N
Wind Variable Wind from North
Gusts 0.0 mph

Today is forecast to be Warmer than yesterday. Slight chance of a thunderstorm.

Today
High -- | Low -- °F
--% Chance of Precip.
Yesterday
High -- | Low -- °F
Precip. -- in
5:48 AM 8:27 PM
Waxing Crescent, 20% visible
Pressure 30.03 in
Visibility 10.0 miles
Clouds Clear
Heat Index 78 °F
Dew Point Not available.
Humidity Not available.
Rainfall -999.00 in
Snow Depth Not available.
UV 10 out of 12
Pollen 7.50 out of 12
Air Quality Not available.
Flu Activity Not available.
METAR KCMY 311835Z AUTO 29011G16KT 10SM CLR 26/12 A3003 RMK AO2 T02600123

More Conditions Fewer Conditions

Pressure 30.03 in
Visibility 10.0 miles
Clouds Clear
Heat Index 78 °F
Dew Point Not available.
Humidity Not available.
Rainfall -999.00 in
Snow Depth Not available.
UV 10 out of 12
Pollen 7.50 out of 12
Air Quality Not available.
Flu Activity Not available.
METAR KCMY 311835Z AUTO 29011G16KT 10SM CLR 26/12 A3003 RMK AO2 T02600123

More Conditions Fewer Conditions

10-Day Weather Forecast

Almanac

Astronomy

Jul. 31, 2014 Rise Set
Actual Time 5:48 AM CDT 8:27 PM CDT
Civil Twilight 5:15 AM CDT 9:00 PM CDT
Nautical Twilight 4:33 AM CDT 9:41 PM CDT
Astronomical Twilight 3:45 AM CDT 10:29 PM CDT
Moon 10:27 AM CDT 10:27 PM CDT
Length of Visible Light 15h 44m
Length of Day
14h 38m
Tomorrow will be 2m 18s shorter.
Waxing Crescent, 20% of the Moon is Illuminated
Today
Waxing Crescent
Aug 3
First Quarter
Aug 10
Full
Aug 17
Last Quarter
Aug 25
New

Today's Extremes

State Highs State Lows

Community

WunderPhotos

Upload Photos

1,739,422 photos uploaded!

Nearby

Snow Depth

Station Depth Elevation
No new snow has been reported.

Earthquake Activity

City Distance Mag. Time & Date
No recent earthquake activity has been reported nearby.
Minimum magnitude displayed is 2.5.

Coastal Water Temperatures

Place Temperature
No Stations Reporting

Nearby Weather Stations

Station Location Temp. Heat Index Dew Point Humidity Wind Precip. Elev Updated Type
MesoWest WARENS , Warrens, WI 80 °F 78 °F - - North  at  - 0.00 in / hr 977 ft 12:55 PM CDT MADIS
Water Mill, Tomah, WI 78.6 °F 80 °F 62 °F 57% West  at  10.0 mph 0.00 in / hr 950 ft 1:58 PM CDT Rapid Fire
RAWS NECEDAH WI, Necedah, WI 80 °F 80 °F 57 °F 45% West  at  12 mph 0.00 in / hr 950 ft 12:48 PM CDT MADIS
Kendall, Wi., Kendall, WI 82.4 °F 81 °F 50 °F 33% SE  at  8.1 mph 0.00 in / hr 1021 ft 1:58 PM CDT Rapid Fire
New Lisbon, WI 80.0 °F 81 °F 63 °F 57% West  at  8.0 mph 0.00 in / hr 891 ft 1:58 PM CDT Rapid Fire

Show More Stations Show Fewer Stations